createdAt,value
2023-03-22T00:00:01.035Z,100039.16
2023-03-22T00:02:30.524Z,100041.99
2023-03-22T00:04:57.934Z,100036.67
2023-03-22T00:07:26.698Z,100035.20
2023-03-22T00:09:53.834Z,100033.61
2023-03-22T00:12:20.971Z,100030.16
2023-03-22T00:14:49.528Z,100034.86
2023-03-22T00:17:16.741Z,100033.00
2023-03-22T00:19:45.079Z,100029.09
2023-03-22T00:22:12.133Z,100029.31
2023-03-22T00:24:39.284Z,100026.87
2023-03-22T00:27:06.437Z,100021.83
2023-03-22T00:29:33.484Z,100018.85
2023-03-22T00:32:00.716Z,100019.42
2023-03-22T00:34:31.654Z,100020.37
2023-03-22T00:36:59.034Z,100026.13
2023-03-22T00:39:27.109Z,100025.62
2023-03-22T00:41:54.284Z,100025.30
2023-03-22T00:44:21.564Z,100017.97
2023-03-22T00:46:48.713Z,100014.11
2023-03-22T00:49:15.819Z,100014.05
2023-03-22T00:51:43.092Z,100008.60
2023-03-22T00:54:10.317Z,100011.79
2023-03-22T00:56:38.412Z,100003.44
2023-03-22T00:59:12.739Z,99999.71
2023-03-22T01:01:40.883Z,99998.66
2023-03-22T01:04:08.033Z,99993.38
2023-03-22T01:06:35.603Z,99989.43
2023-03-22T01:09:02.816Z,99984.26
2023-03-22T01:11:30.010Z,99981.95
2023-03-22T01:13:57.277Z,99978.50
2023-03-22T01:16:24.992Z,99972.80
2023-03-22T01:18:52.280Z,99975.97
2023-03-22T01:21:19.643Z,99970.23
2023-03-22T01:23:46.951Z,99966.85
2023-03-22T01:26:14.178Z,99965.88
2023-03-22T01:28:41.508Z,99960.20
2023-03-22T01:31:08.693Z,99958.69
2023-03-22T01:33:36.767Z,99958.11
2023-03-22T01:36:04.401Z,99953.70
2023-03-22T01:38:32.938Z,99949.21
2023-03-22T01:41:00.835Z,99951.38
2023-03-22T01:43:30.378Z,99943.41
2023-03-22T01:45:58.175Z,99936.45
2023-03-22T01:48:38.235Z,99933.04
2023-03-22T01:51:12.295Z,99930.82
2023-03-22T01:53:57.076Z,99931.52
2023-03-22T01:56:28.539Z,99927.05
2023-03-22T01:58:56.502Z,99920.14
2023-03-22T02:01:31.140Z,99914.06
2023-03-22T02:04:07.321Z,99916.27
2023-03-22T02:06:38.456Z,99916.91
2023-03-22T02:09:12.158Z,99916.38
2023-03-22T02:11:43.203Z,99911.08
2023-03-22T02:14:28.561Z,99909.27
2023-03-22T02:17:54.661Z,99900.42
2023-03-22T02:20:53.077Z,99893.46
2023-03-22T02:23:51.098Z,99893.23
2023-03-22T02:26:30.612Z,99897.65
2023-03-22T02:29:08.322Z,99900.10
2023-03-22T02:31:44.597Z,99900.39
2023-03-22T02:34:44.540Z,99894.90
2023-03-22T02:37:39.699Z,99893.18
2023-03-22T02:40:28.532Z,99891.59
2023-03-22T02:43:09.879Z,99893.12
2023-03-22T02:45:42.135Z,99893.52
2023-03-22T02:48:15.809Z,99895.92
2023-03-22T02:50:51.388Z,99892.39
2023-03-22T02:53:40.898Z,99893.92
2023-03-22T02:56:16.797Z,99890.46
2023-03-22T02:58:46.963Z,99887.59
2023-03-22T03:01:20.587Z,99887.57
2023-03-22T03:03:50.970Z,99886.22
2023-03-22T03:06:20.959Z,99884.14
2023-03-22T03:08:53.539Z,99886.85
2023-03-22T03:11:21.352Z,99883.29
2023-03-22T03:13:49.904Z,99883.31
2023-03-22T03:16:21.755Z,99881.06
2023-03-22T03:19:29.146Z,99885.05
2023-03-22T03:22:06.967Z,99886.16
2023-03-22T03:24:45.222Z,99885.34
2023-03-22T03:27:23.197Z,99879.29
2023-03-22T03:30:05.849Z,99880.74
2023-03-22T03:32:42.108Z,99875.63
2023-03-22T03:35:23.106Z,99876.86
2023-03-22T03:38:08.027Z,99881.39
2023-03-22T03:40:40.683Z,99880.47
2023-03-22T03:43:09.860Z,99876.82
2023-03-22T03:45:38.233Z,99877.86
2023-03-22T03:48:10.244Z,99876.09
2023-03-22T03:50:38.237Z,99877.60
2023-03-22T03:53:05.848Z,99877.70
2023-03-22T03:55:33.758Z,99878.08
2023-03-22T03:58:01.067Z,99876.55
2023-03-22T04:00:28.221Z,99876.73
2023-03-22T04:03:31.674Z,99881.70
2023-03-22T04:06:29.148Z,99878.23
2023-03-22T04:09:01.832Z,99881.75
2023-03-22T04:11:31.306Z,99882.57
2023-03-22T04:14:00.410Z,99880.46
2023-03-22T04:16:27.731Z,99881.91
2023-03-22T04:18:55.446Z,99877.71
2023-03-22T04:21:23.014Z,99872.41
2023-03-22T04:23:56.242Z,99877.74
2023-03-22T04:26:26.215Z,99876.26
2023-03-22T04:29:14.672Z,99870.13
2023-03-22T04:31:44.887Z,99868.62
2023-03-22T04:34:20.460Z,99867.75
2023-03-22T04:37:02.749Z,99868.80
2023-03-22T04:39:53.294Z,99865.79
2023-03-22T04:42:30.322Z,99866.23
2023-03-22T04:45:20.051Z,99860.49
2023-03-22T04:47:50.669Z,99861.06
2023-03-22T04:50:17.860Z,99863.70
2023-03-22T04:52:50.085Z,99864.73
2023-03-22T04:55:17.616Z,99859.02
2023-03-22T04:57:45.173Z,99860.73
2023-03-22T05:00:12.995Z,99863.66
2023-03-22T05:02:41.444Z,99866.85
2023-03-22T05:05:13.930Z,99860.52
2023-03-22T05:07:41.613Z,99853.48
2023-03-22T05:10:10.077Z,99853.11
2023-03-22T05:12:37.726Z,99854.73
2023-03-22T05:15:16.758Z,99851.27
2023-03-22T05:17:43.988Z,99848.58
2023-03-22T05:20:11.722Z,99849.49
2023-03-22T05:22:41.100Z,99846.38
2023-03-22T05:25:11.526Z,99844.63
2023-03-22T05:27:41.087Z,99849.23
2023-03-22T05:30:28.361Z,99846.03
2023-03-22T05:33:04.779Z,99841.35
2023-03-22T05:35:38.403Z,99840.59
2023-03-22T05:38:06.658Z,99835.90
2023-03-22T05:40:35.805Z,99830.30
2023-03-22T05:43:02.934Z,99827.90
2023-03-22T05:45:32.580Z,99823.81
2023-03-22T05:48:15.156Z,99821.76
2023-03-22T05:50:42.698Z,99823.39
2023-03-22T05:53:11.690Z,99823.90
2023-03-22T05:56:00.827Z,99824.71
2023-03-22T05:58:30.898Z,99819.09
2023-03-22T06:01:03.433Z,99814.23
2023-03-22T06:03:50.799Z,99811.71
2023-03-22T06:06:31.858Z,99815.17
2023-03-22T06:09:16.732Z,99814.44
2023-03-22T06:11:46.184Z,99813.86
2023-03-22T06:14:14.933Z,99811.41
2023-03-22T06:17:05.652Z,99815.73
2023-03-22T06:19:33.017Z,99809.41
2023-03-22T06:22:02.230Z,99811.88
2023-03-22T06:24:29.562Z,99811.48
2023-03-22T06:26:56.706Z,99808.39
2023-03-22T06:29:24.291Z,99813.16
2023-03-22T06:31:53.324Z,99811.86
2023-03-22T06:34:20.706Z,99814.49
2023-03-22T06:36:48.180Z,99813.88
2023-03-22T06:39:30.720Z,99809.80
2023-03-22T06:41:58.482Z,99816.40
2023-03-22T06:44:25.916Z,99816.63
2023-03-22T06:46:53.140Z,99812.23
2023-03-22T06:49:42.944Z,99812.30
2023-03-22T06:52:14.784Z,99807.91
2023-03-22T06:54:42.217Z,99805.20
2023-03-22T06:57:10.413Z,99801.59
2023-03-22T06:59:37.745Z,99804.11
2023-03-22T07:02:05.001Z,99802.36
2023-03-22T07:04:33.786Z,99807.55
2023-03-22T07:07:01.145Z,99807.98
2023-03-22T07:09:28.395Z,99814.71
2023-03-22T07:11:57.927Z,99812.78
2023-03-22T07:14:25.365Z,99808.27
2023-03-22T07:17:05.317Z,99803.73
2023-03-22T07:19:33.437Z,99801.27
2023-03-22T07:22:04.405Z,99799.54
2023-03-22T07:24:32.771Z,99792.05
2023-03-22T07:27:02.174Z,99786.34
2023-03-22T07:29:29.640Z,99783.27
2023-03-22T07:31:57.156Z,99783.95
2023-03-22T07:34:40.698Z,99782.90
2023-03-22T07:37:15.085Z,99779.40
2023-03-22T07:39:42.338Z,99778.58
2023-03-22T07:42:09.718Z,99781.58
2023-03-22T07:44:36.849Z,99786.41
2023-03-22T07:47:30.598Z,99785.65
2023-03-22T07:50:31.573Z,99787.27
2023-03-22T07:53:00.099Z,99784.64
2023-03-22T07:55:27.372Z,99785.11
2023-03-22T07:57:54.527Z,99786.12
2023-03-22T08:00:23.216Z,99785.45
2023-03-22T08:02:56.475Z,99786.71
2023-03-22T08:05:43.907Z,99776.48
2023-03-22T08:08:13.727Z,99774.82
2023-03-22T08:10:41.162Z,99777.21
2023-03-22T08:13:08.689Z,99776.00
2023-03-22T08:15:37.591Z,99772.53
2023-03-22T08:18:05.164Z,99767.56
2023-03-22T08:20:35.232Z,99770.94
2023-03-22T08:23:08.097Z,99763.92
2023-03-22T08:25:57.894Z,99759.91
2023-03-22T08:28:25.054Z,99757.23
2023-03-22T08:30:52.511Z,99759.90
2023-03-22T08:33:23.829Z,99758.14
2023-03-22T08:35:52.325Z,99757.21
2023-03-22T08:38:19.783Z,99756.25
2023-03-22T08:40:49.664Z,99761.15
2023-03-22T08:43:19.857Z,99761.36
2023-03-22T08:45:47.769Z,99759.95
2023-03-22T08:48:16.549Z,99760.39
2023-03-22T08:51:02.470Z,99764.55
2023-03-22T08:53:50.170Z,99760.88
2023-03-22T08:56:39.887Z,99755.05
2023-03-22T08:59:16.337Z,99756.71
2023-03-22T09:01:56.370Z,99754.43
2023-03-22T09:04:23.822Z,99755.89
2023-03-22T09:06:51.230Z,99756.52
2023-03-22T09:09:18.485Z,99760.45
2023-03-22T09:11:47.751Z,99761.20
2023-03-22T09:14:14.903Z,99764.25
2023-03-22T09:16:42.495Z,99761.23
2023-03-22T09:19:10.007Z,99757.27
2023-03-22T09:21:37.990Z,99754.60
2023-03-22T09:24:09.833Z,99753.32
2023-03-22T09:26:40.923Z,99750.12
2023-03-22T09:29:08.251Z,99748.70
2023-03-22T09:31:35.826Z,99753.63
2023-03-22T09:34:13.813Z,99747.27
2023-03-22T09:36:41.193Z,99747.29
2023-03-22T09:39:10.092Z,99750.57
2023-03-22T09:41:44.895Z,99745.43
2023-03-22T09:44:34.903Z,99747.68
2023-03-22T09:47:05.535Z,99750.71
2023-03-22T09:49:52.629Z,99747.83
2023-03-22T09:52:20.459Z,99741.86
2023-03-22T09:54:47.647Z,99745.31
2023-03-22T09:57:39.083Z,99746.27
2023-03-22T10:00:18.892Z,99740.04
2023-03-22T10:02:46.038Z,99733.33
2023-03-22T10:05:17.721Z,99733.30
2023-03-22T10:08:18.024Z,99733.39
2023-03-22T10:10:45.899Z,99726.98
2023-03-22T10:13:21.362Z,99730.88
2023-03-22T10:15:59.315Z,99730.77
2023-03-22T10:18:33.141Z,99732.98
2023-03-22T10:21:08.565Z,99734.27
2023-03-22T10:23:45.727Z,99734.08
2023-03-22T10:26:21.639Z,99731.77
2023-03-22T10:29:04.733Z,99725.90
2023-03-22T10:31:34.022Z,99719.05
2023-03-22T10:34:16.673Z,99723.16
2023-03-22T10:36:44.770Z,99725.76
2023-03-22T10:39:41.445Z,99727.88
2023-03-22T10:42:15.575Z,99725.86
2023-03-22T10:44:56.457Z,99721.29
2023-03-22T10:47:41.497Z,99717.79
2023-03-22T10:50:18.764Z,99716.88
2023-03-22T10:52:58.927Z,99717.91
2023-03-22T10:55:26.556Z,99714.86
2023-03-22T10:58:11.147Z,99714.27
2023-03-22T11:00:42.209Z,99710.27
2023-03-22T11:03:09.456Z,99708.41
2023-03-22T11:05:36.663Z,99708.29
2023-03-22T11:08:03.953Z,99703.59
2023-03-22T11:10:35.328Z,99704.63
2023-03-22T11:13:09.200Z,99704.86
2023-03-22T11:15:49.454Z,99704.34
2023-03-22T11:18:17.911Z,99700.61
2023-03-22T11:21:00.783Z,99701.39
2023-03-22T11:23:33.817Z,99695.33
2023-03-22T11:26:13.207Z,99696.23
2023-03-22T11:28:47.603Z,99695.17
2023-03-22T11:31:17.365Z,99693.44
2023-03-22T11:34:16.821Z,99687.91
2023-03-22T11:36:45.469Z,99694.23
2023-03-22T11:39:12.761Z,99689.98
2023-03-22T11:41:40.987Z,99690.93
2023-03-22T11:44:12.851Z,99686.21
2023-03-22T11:46:48.270Z,99684.79
2023-03-22T11:49:17.900Z,99684.48
2023-03-22T11:51:45.745Z,99683.91
2023-03-22T11:54:26.945Z,99682.90
2023-03-22T11:56:58.387Z,99682.11
2023-03-22T11:59:40.319Z,99681.13
2023-03-22T12:02:31.855Z,99680.93
2023-03-22T12:05:17.425Z,99673.92
2023-03-22T12:07:46.236Z,99675.80
2023-03-22T12:10:21.404Z,99675.05
2023-03-22T12:13:00.561Z,99676.89
2023-03-22T12:15:37.454Z,99675.48
2023-03-22T12:18:36.593Z,99678.39
2023-03-22T12:21:03.870Z,99673.67
2023-03-22T12:23:35.152Z,99669.90
2023-03-22T12:26:05.511Z,99669.81
2023-03-22T12:28:54.511Z,99662.80
2023-03-22T12:31:27.841Z,99662.09
2023-03-22T12:33:58.356Z,99664.42
2023-03-22T12:36:38.213Z,99657.74
2023-03-22T12:39:08.113Z,99652.35
2023-03-22T12:41:42.162Z,99653.34
2023-03-22T12:44:19.277Z,99651.41
2023-03-22T12:46:53.734Z,99641.29
2023-03-22T12:49:27.959Z,99652.16
2023-03-22T12:52:04.734Z,99649.13
2023-03-22T12:54:32.214Z,99647.56
2023-03-22T12:56:59.391Z,99647.78
2023-03-22T12:59:30.662Z,99640.79
2023-03-22T13:02:14.741Z,99640.17
2023-03-22T13:04:43.340Z,99644.48
2023-03-22T13:07:19.655Z,99641.39
2023-03-22T13:09:49.181Z,99643.03
2023-03-22T13:12:19.192Z,99641.95
2023-03-22T13:14:52.383Z,99642.67
2023-03-22T13:17:25.828Z,99639.15
2023-03-22T13:20:20.057Z,99632.71
2023-03-22T13:22:47.288Z,99630.02
2023-03-22T13:25:18.842Z,99624.61
2023-03-22T13:27:46.173Z,99621.17
2023-03-22T13:30:35.879Z,99616.14
2023-03-22T13:33:08.865Z,99615.55
2023-03-22T13:35:45.183Z,99612.15
2023-03-22T13:38:25.640Z,99607.17
2023-03-22T13:40:56.758Z,99604.34
2023-03-22T13:43:29.988Z,99597.20
2023-03-22T13:46:14.357Z,99595.06
2023-03-22T13:48:43.492Z,99593.50
2023-03-22T13:51:14.836Z,99587.30
2023-03-22T13:53:56.980Z,99588.39
2023-03-22T13:56:54.338Z,99584.55
2023-03-22T13:59:27.732Z,99587.13
2023-03-22T14:02:18.490Z,99584.25
2023-03-22T14:05:09.288Z,99581.22
2023-03-22T14:08:00.366Z,99578.03
2023-03-22T14:10:33.682Z,99577.35
2023-03-22T14:13:06.699Z,99578.18
2023-03-22T14:15:38.926Z,99578.94
2023-03-22T14:18:14.954Z,99568.95
2023-03-22T14:20:43.695Z,99571.11
